Mason, MI

6:25 PM EST on January 25, 2015 (GMT -0500)
Ingham County Sheriff's Office | Change Station
CLOSE
Current Station
Personal Weather Station
Location: Mason, MI
Elevation: 902 ft
Nearby Weather Stations

Elev 902 ft 42.59 °N, 84.46 °W | Updated 1 second ago

Scattered Clouds
Scattered Clouds
22.6 °F
Feels Like 16 °F
N
4.9
Wind Variable Wind from NNE
Gusts 11.0 mph

Today
High -- | Low -- °F
--% Chance of Precip.
Yesterday
High -- | Low -- °F
Precip. -- in
7:58 AM 5:41 PM
Waxing Crescent, 36% visible
Pressure 29.93 in
Visibility 10.0 miles
Clouds Scattered Clouds 12000 ft
Windchill 16 °F
Dew Point 14 °F
Humidity 70%
Rainfall 0.02 in
Snow Depth Not available.
UV 0 out of 12
Pollen .10 out of 12
Air Quality Not available.
Flu Activity Not available.
METAR KTEW 252314Z AUTO 04011G15KT 10SM SCT120 M06/M12 A2993 RMK AO2 T10641117

More Conditions Fewer Conditions

Pressure 29.93 in
Visibility 10.0 miles
Clouds Scattered Clouds 12000 ft
Windchill 16 °F
Dew Point 14 °F
Humidity 70%
Rainfall 0.02 in
Snow Depth Not available.
UV 0 out of 12
Pollen .10 out of 12
Air Quality Not available.
Flu Activity Not available.
METAR KTEW 252314Z AUTO 04011G15KT 10SM SCT120 M06/M12 A2993 RMK AO2 T10641117

More Conditions Fewer Conditions

10-Day Weather Forecast

Almanac

Astronomy

Jan. 25, 2015 Rise Set
Actual Time
Civil Twilight
Nautical Twilight
Astronomical Twilight
Moon
Length of Visible Light
Length of Day
Tomorrow will be .
, % of the Moon is Illuminated

Today's Extremes

State Highs State Lows

Community

WunderPhotos

Upload Photos

1,790,088 photos uploaded!

WunderBlogs® & News

Nearby

Air Quality

  Air Quality AQ Index Pollutant
Not available.

Snow Depth

Station Depth Elevation

Earthquake Activity

City Distance Mag. Time & Date
Minimum magnitude displayed is 2.5.

Coastal Water Temperatures

Place Temperature

Nearby Weather Stations